createdAt,value
2022-11-21T00:01:33.187Z,1.40
2022-11-21T00:04:00.144Z,1.80
2022-11-21T00:06:27.220Z,1.70
2022-11-21T00:08:55.444Z,1.63
2022-11-21T00:11:22.500Z,2.45
2022-11-21T00:13:49.557Z,1.63
2022-11-21T00:16:16.894Z,1.50
2022-11-21T00:18:44.501Z,1.77
2022-11-21T00:21:16.715Z,1.75
2022-11-21T00:23:44.571Z,1.60
2022-11-21T00:26:12.822Z,1.48
2022-11-21T00:28:40.049Z,1.80
2022-11-21T00:31:07.777Z,1.60
2022-11-21T00:33:39.096Z,1.75
2022-11-21T00:36:08.173Z,1.60
2022-11-21T00:38:35.357Z,2.00
2022-11-21T00:41:02.368Z,1.30
2022-11-21T00:43:29.295Z,1.65
2022-11-21T00:45:56.329Z,1.67
2022-11-21T00:48:23.329Z,1.70
2022-11-21T00:50:50.493Z,1.80
2022-11-21T00:53:17.383Z,1.98
2022-11-21T00:55:44.399Z,1.75
2022-11-21T00:58:11.311Z,1.80
2022-11-21T01:00:38.339Z,1.80
2022-11-21T01:03:05.249Z,1.73
2022-11-21T01:05:33.336Z,1.60
2022-11-21T01:08:00.241Z,1.90
2022-11-21T01:10:27.233Z,1.77
2022-11-21T01:12:54.179Z,1.90
2022-11-21T01:15:21.141Z,1.80
2022-11-21T01:17:48.148Z,1.80
2022-11-21T01:20:15.196Z,1.70
2022-11-21T01:22:42.168Z,2.10
2022-11-21T01:25:09.251Z,1.73
2022-11-21T01:27:36.335Z,1.50
2022-11-21T01:30:03.985Z,1.55
2022-11-21T01:32:31.000Z,1.70
2022-11-21T01:34:57.901Z,1.85
2022-11-21T01:37:25.249Z,1.50
2022-11-21T01:39:52.158Z,1.80
2022-11-21T01:42:19.183Z,1.60
2022-11-21T01:44:50.453Z,1.65
2022-11-21T01:47:17.739Z,1.50
2022-11-21T01:49:45.943Z,2.23
2022-11-21T01:52:22.073Z,1.60
2022-11-21T01:55:04.835Z,2.05
2022-11-21T01:57:37.119Z,1.80
2022-11-21T02:00:11.764Z,1.98
2022-11-21T02:02:44.183Z,1.80
2022-11-21T02:05:17.348Z,1.60
2022-11-21T02:07:47.151Z,1.73
2022-11-21T02:10:15.700Z,1.50
2022-11-21T02:12:56.207Z,1.95
2022-11-21T02:15:25.572Z,1.80
2022-11-21T02:17:52.986Z,1.60
2022-11-21T02:20:22.784Z,1.63
2022-11-21T02:23:29.773Z,2.00
2022-11-21T02:25:57.069Z,1.40
2022-11-21T02:28:24.912Z,1.50
2022-11-21T02:30:51.867Z,1.75
2022-11-21T02:33:18.903Z,1.40
2022-11-21T02:35:55.231Z,1.83
2022-11-21T02:38:35.152Z,1.60
2022-11-21T02:41:16.141Z,1.80
2022-11-21T02:43:47.943Z,1.70
2022-11-21T02:46:19.991Z,1.65
2022-11-21T02:48:47.173Z,1.87
2022-11-21T02:51:14.362Z,2.20
2022-11-21T02:53:41.263Z,1.65
2022-11-21T02:56:08.196Z,1.60
2022-11-21T02:58:35.476Z,1.55
2022-11-21T03:01:02.426Z,1.50
2022-11-21T03:03:29.321Z,1.70
2022-11-21T03:05:56.729Z,1.50
2022-11-21T03:08:23.619Z,1.20
2022-11-21T03:10:50.549Z,1.52
2022-11-21T03:13:17.445Z,1.60
2022-11-21T03:15:44.355Z,1.67
2022-11-21T03:18:11.215Z,1.40
2022-11-21T03:20:38.156Z,1.65
2022-11-21T03:23:05.016Z,1.60
2022-11-21T03:25:32.307Z,1.60
2022-11-21T03:27:59.168Z,1.23
2022-11-21T03:30:27.634Z,1.60
2022-11-21T03:32:58.317Z,1.60
2022-11-21T03:35:25.565Z,1.10
2022-11-21T03:37:52.528Z,1.40
2022-11-21T03:40:19.381Z,1.52
2022-11-21T03:42:46.311Z,1.50
2022-11-21T03:45:13.153Z,1.70
2022-11-21T03:47:40.069Z,1.40
2022-11-21T03:50:07.636Z,1.40
2022-11-21T03:52:34.452Z,1.20
2022-11-21T03:55:01.316Z,1.50
2022-11-21T03:57:28.263Z,1.80
2022-11-21T03:59:55.166Z,1.50
2022-11-21T04:02:22.034Z,1.40
2022-11-21T04:04:48.860Z,1.30
2022-11-21T04:07:16.547Z,1.65
2022-11-21T04:09:43.512Z,1.17
2022-11-21T04:12:10.412Z,2.13
2022-11-21T04:14:37.343Z,1.80
2022-11-21T04:17:04.511Z,1.70
2022-11-21T04:19:31.393Z,1.83
2022-11-21T04:21:58.335Z,1.88
2022-11-21T04:24:25.423Z,1.60
2022-11-21T04:26:54.958Z,1.80
2022-11-21T04:29:21.836Z,2.00
2022-11-21T04:31:48.808Z,1.67
2022-11-21T04:34:15.699Z,1.90
2022-11-21T04:36:42.671Z,1.90
2022-11-21T04:39:09.607Z,1.60
2022-11-21T04:41:36.872Z,2.40
2022-11-21T04:44:03.817Z,1.98
2022-11-21T04:46:30.745Z,2.05
2022-11-21T04:48:57.609Z,1.70
2022-11-21T04:51:24.490Z,1.90
2022-11-21T04:53:51.345Z,1.70
2022-11-21T04:56:18.185Z,1.60
2022-11-21T04:58:45.173Z,1.50
2022-11-21T05:01:12.444Z,1.80
2022-11-21T05:03:39.510Z,1.92
2022-11-21T05:06:06.455Z,1.70
2022-11-21T05:08:33.317Z,1.80
2022-11-21T05:11:18.659Z,1.70
2022-11-21T05:13:45.597Z,1.50
2022-11-21T05:16:12.492Z,1.48
2022-11-21T05:18:39.434Z,1.40
2022-11-21T05:21:06.256Z,1.60
2022-11-21T05:23:33.235Z,1.63
2022-11-21T05:26:00.063Z,1.92
2022-11-21T05:28:27.402Z,1.50
2022-11-21T05:30:54.277Z,1.70
2022-11-21T05:33:21.284Z,1.70
2022-11-21T05:35:48.188Z,1.40
2022-11-21T05:38:15.033Z,1.80
2022-11-21T05:40:41.908Z,1.67
2022-11-21T05:43:29.990Z,1.60
2022-11-21T05:45:57.009Z,1.30
2022-11-21T05:48:23.890Z,1.40
2022-11-21T05:50:50.728Z,1.55
2022-11-21T05:53:17.924Z,1.45
2022-11-21T05:55:45.141Z,1.60
2022-11-21T05:58:12.644Z,1.80
2022-11-21T06:00:39.707Z,1.50
2022-11-21T06:03:27.060Z,1.60
2022-11-21T06:06:17.670Z,1.50
2022-11-21T06:08:47.546Z,1.50
2022-11-21T06:11:16.654Z,1.38
2022-11-21T06:13:43.988Z,1.60
2022-11-21T06:16:16.152Z,1.30
2022-11-21T06:18:45.155Z,1.50
2022-11-21T06:21:17.944Z,1.52
2022-11-21T06:23:45.748Z,1.48
2022-11-21T06:26:18.478Z,1.65
2022-11-21T06:28:46.144Z,1.60
2022-11-21T06:31:16.076Z,1.60
2022-11-21T06:33:44.437Z,1.40
2022-11-21T06:36:17.065Z,1.50
2022-11-21T06:38:45.154Z,1.50
2022-11-21T06:41:20.875Z,1.50
2022-11-21T06:43:48.068Z,1.40
2022-11-21T06:46:15.782Z,1.60
2022-11-21T06:48:43.665Z,1.45
2022-11-21T06:51:18.869Z,1.40
2022-11-21T06:53:46.752Z,1.63
2022-11-21T06:56:14.956Z,1.70
2022-11-21T06:58:43.393Z,1.65
2022-11-21T07:01:10.805Z,1.20
2022-11-21T07:03:37.896Z,1.38
2022-11-21T07:06:05.676Z,1.60
2022-11-21T07:08:35.426Z,1.48
2022-11-21T07:11:25.225Z,1.70
2022-11-21T07:13:52.928Z,1.48
2022-11-21T07:16:19.885Z,1.40
2022-11-21T07:18:46.727Z,1.60
2022-11-21T07:21:14.552Z,1.50
2022-11-21T07:23:41.457Z,1.50
2022-11-21T07:26:10.314Z,1.83
2022-11-21T07:28:37.328Z,1.55
2022-11-21T07:31:09.964Z,1.52
2022-11-21T07:33:40.051Z,1.30
2022-11-21T07:36:07.334Z,2.13
2022-11-21T07:38:34.342Z,2.10
2022-11-21T07:41:01.351Z,1.90
2022-11-21T07:43:28.256Z,2.20
2022-11-21T07:45:56.100Z,2.30
2022-11-21T07:48:23.057Z,1.80
2022-11-21T07:50:50.008Z,2.40
2022-11-21T07:53:16.876Z,1.98
2022-11-21T07:55:43.852Z,1.90
2022-11-21T07:58:12.773Z,1.67
2022-11-21T08:00:42.960Z,1.95
2022-11-21T08:03:12.244Z,2.60
2022-11-21T08:05:41.947Z,2.33
2022-11-21T08:08:13.324Z,1.90
2022-11-21T08:10:43.281Z,1.88
2022-11-21T08:13:11.237Z,2.40
2022-11-21T08:15:38.486Z,2.38
2022-11-21T08:18:13.248Z,2.13
2022-11-21T08:20:40.492Z,2.97
2022-11-21T08:23:07.885Z,2.90
2022-11-21T08:25:37.161Z,2.30
2022-11-21T08:28:04.841Z,2.00
2022-11-21T08:30:32.605Z,2.60
2022-11-21T08:33:00.120Z,2.70
2022-11-21T08:35:27.660Z,2.30
2022-11-21T08:38:01.446Z,2.28
2022-11-21T08:40:30.784Z,1.90
2022-11-21T08:42:59.310Z,2.40
2022-11-21T08:45:26.390Z,2.10
2022-11-21T08:47:53.873Z,2.10
2022-11-21T08:50:21.559Z,2.30
2022-11-21T08:52:48.908Z,2.20
2022-11-21T08:55:15.961Z,2.33
2022-11-21T08:57:43.343Z,2.70
2022-11-21T09:00:15.044Z,2.38
2022-11-21T09:02:42.300Z,2.40
2022-11-21T09:05:09.894Z,2.70
2022-11-21T09:07:36.961Z,2.50
2022-11-21T09:10:04.633Z,2.30
2022-11-21T09:12:31.784Z,2.10
2022-11-21T09:15:17.359Z,2.30
2022-11-21T09:18:02.570Z,4.18
2022-11-21T09:20:30.362Z,2.65
2022-11-21T09:22:57.532Z,2.58
2022-11-21T09:25:24.493Z,2.20
2022-11-21T09:27:51.392Z,2.40
2022-11-21T09:30:18.513Z,2.67
2022-11-21T09:32:45.477Z,2.37
2022-11-21T09:35:12.721Z,2.95
2022-11-21T09:37:40.299Z,2.67
2022-11-21T09:40:10.352Z,3.10
2022-11-21T09:42:46.293Z,2.60
2022-11-21T09:45:37.653Z,2.67
2022-11-21T09:48:12.328Z,3.00
2022-11-21T09:50:49.475Z,1.73
2022-11-21T09:53:29.447Z,2.67
2022-11-21T09:56:00.089Z,2.53
2022-11-21T09:58:42.313Z,2.90
2022-11-21T10:01:17.148Z,2.80
2022-11-21T10:03:47.682Z,2.65
2022-11-21T10:06:22.876Z,3.00
2022-11-21T10:09:07.400Z,3.20
2022-11-21T10:12:03.044Z,2.70
2022-11-21T10:14:59.248Z,3.00
2022-11-21T10:17:37.795Z,3.20
2022-11-21T10:20:35.553Z,2.75
2022-11-21T10:23:27.382Z,2.70
2022-11-21T10:26:14.064Z,3.00
2022-11-21T10:28:49.464Z,2.40
2022-11-21T10:31:18.222Z,2.80
2022-11-21T10:33:45.670Z,2.97
2022-11-21T10:36:36.131Z,3.50
2022-11-21T10:39:27.661Z,2.97
2022-11-21T10:42:20.295Z,2.97
2022-11-21T10:45:08.560Z,3.00
2022-11-21T10:47:37.917Z,2.40
2022-11-21T10:50:16.157Z,2.50
2022-11-21T10:53:00.324Z,2.50
2022-11-21T10:55:27.366Z,2.40
2022-11-21T10:57:55.413Z,1.90
2022-11-21T11:00:27.325Z,2.50
2022-11-21T11:02:57.110Z,2.42
2022-11-21T11:05:26.460Z,2.37
2022-11-21T11:08:14.238Z,2.63
2022-11-21T11:10:44.519Z,2.28
2022-11-21T11:13:50.938Z,3.22
2022-11-21T11:16:21.799Z,3.90
2022-11-21T11:19:23.134Z,2.30
2022-11-21T11:21:52.548Z,1.93
2022-11-21T11:24:29.655Z,2.20
2022-11-21T11:27:03.120Z,2.10
2022-11-21T11:29:34.662Z,2.28
2022-11-21T11:32:21.176Z,1.85
2022-11-21T11:34:54.599Z,1.90
2022-11-21T11:37:47.087Z,2.05
2022-11-21T11:40:20.165Z,2.80
2022-11-21T11:43:27.433Z,1.98
2022-11-21T11:46:34.715Z,2.00
2022-11-21T11:49:20.354Z,2.20
2022-11-21T11:51:57.140Z,2.10
2022-11-21T11:54:29.763Z,5.22
2022-11-21T11:56:59.333Z,2.65
2022-11-21T11:59:37.465Z,1.70
2022-11-21T12:02:11.657Z,2.00
2022-11-21T12:05:02.231Z,1.90
2022-11-21T12:10:58.083Z,2.00
2022-11-21T12:13:27.785Z,2.00
2022-11-21T12:16:07.135Z,2.10
2022-11-21T12:18:55.864Z,2.10
2022-11-21T12:21:23.587Z,2.00
2022-11-21T12:23:58.570Z,1.80
2022-11-21T12:26:40.361Z,1.67
2022-11-21T12:29:36.900Z,1.70
2022-11-21T12:32:31.896Z,2.10
2022-11-21T12:35:01.831Z,1.52
2022-11-21T12:37:53.556Z,1.60
2022-11-21T12:40:40.966Z,1.70
2022-11-21T12:43:25.636Z,1.60
2022-11-21T12:46:20.752Z,2.00
2022-11-21T12:49:21.096Z,1.50
2022-11-21T12:52:15.941Z,1.50
2022-11-21T12:55:03.088Z,1.88
2022-11-21T12:57:36.010Z,1.80
2022-11-21T13:00:03.613Z,1.48
2022-11-21T13:02:52.361Z,2.60
2022-11-21T13:05:27.446Z,1.50
2022-11-21T13:08:10.234Z,1.50
2022-11-21T13:10:42.317Z,1.30
2022-11-21T13:13:32.713Z,1.40
2022-11-21T13:16:15.847Z,1.60
2022-11-21T13:18:46.486Z,1.50
2022-11-21T13:21:48.380Z,1.60
2022-11-21T13:24:44.306Z,1.70
2022-11-21T13:27:41.531Z,1.80
2022-11-21T13:30:11.359Z,1.50
2022-11-21T13:32:55.068Z,1.60
2022-11-21T13:35:21.988Z,1.40
2022-11-21T13:37:55.332Z,1.50
2022-11-21T13:41:02.456Z,1.70
2022-11-21T13:43:34.483Z,1.40
2022-11-21T13:46:02.073Z,1.67
2022-11-21T13:48:30.546Z,1.23
2022-11-21T13:51:26.303Z,1.65
2022-11-21T13:54:30.859Z,1.80
2022-11-21T13:57:18.762Z,1.35
2022-11-21T14:00:15.657Z,1.45
2022-11-21T14:03:03.156Z,1.50
2022-11-21T14:05:38.760Z,1.60
2022-11-21T14:08:26.811Z,1.60
2022-11-21T14:10:56.110Z,1.50
2022-11-21T14:13:30.768Z,1.80
2022-11-21T14:16:14.907Z,1.23
2022-11-21T14:18:44.886Z,1.27
2022-11-21T14:21:31.077Z,1.60
2022-11-21T14:24:04.424Z,1.95
2022-11-21T14:26:39.137Z,1.80
2022-11-21T14:29:22.661Z,1.40
2022-11-21T14:31:50.385Z,1.60
2022-11-21T14:34:28.866Z,1.60
2022-11-21T14:36:59.634Z,1.90
2022-11-21T14:39:38.006Z,2.70
2022-11-21T14:42:11.423Z,2.87
2022-11-21T14:44:38.517Z,3.00
2022-11-21T14:47:25.748Z,2.60
2022-11-21T14:49:59.777Z,2.30
2022-11-21T14:52:33.793Z,2.10
2022-11-21T14:55:29.029Z,2.20
2022-11-21T14:57:54.500Z,2.00
2022-11-21T15:03:23.403Z,2.40
2022-11-21T15:06:04.412Z,2.50
2022-11-21T15:11:32.372Z,2.20
2022-11-21T15:14:15.384Z,1.50
2022-11-21T15:16:43.843Z,1.90
2022-11-21T15:19:11.440Z,1.60
2022-11-21T15:21:46.427Z,1.80
2022-11-21T15:24:29.521Z,1.70
2022-11-21T15:26:56.716Z,1.85
2022-11-21T15:29:24.477Z,1.75
2022-11-21T15:32:16.502Z,1.75
2022-11-21T15:34:44.197Z,1.90
2022-11-21T15:37:18.327Z,1.90
2022-11-21T15:39:48.357Z,2.30
2022-11-21T15:42:34.124Z,2.70
2022-11-21T15:45:26.224Z,2.40
2022-11-21T15:47:53.738Z,4.00
2022-11-21T15:50:24.795Z,7.90
2022-11-21T15:52:52.981Z,8.90
2022-11-21T15:55:23.061Z,6.78
2022-11-21T15:57:50.132Z,6.85
2022-11-21T16:00:17.435Z,3.77
2022-11-21T16:02:44.519Z,3.10
2022-11-21T16:05:15.162Z,2.40
2022-11-21T16:07:42.743Z,1.90
2022-11-21T16:10:18.301Z,2.15
2022-11-21T16:12:48.481Z,4.88
2022-11-21T16:15:15.601Z,4.10
2022-11-21T16:17:42.580Z,3.10
2022-11-21T16:20:09.872Z,2.70
2022-11-21T16:22:36.919Z,3.53
2022-11-21T16:25:04.219Z,5.68
2022-11-21T16:27:33.916Z,2.95
2022-11-21T16:30:00.830Z,5.28
2022-11-21T16:32:28.001Z,4.47
2022-11-21T16:34:54.861Z,4.18
2022-11-21T16:37:21.822Z,8.80
2022-11-21T16:39:52.045Z,6.15
2022-11-21T16:42:20.224Z,6.40
2022-11-21T16:44:48.152Z,7.57
2022-11-21T16:47:15.715Z,6.60
2022-11-21T16:49:48.476Z,8.20
2022-11-21T16:52:18.042Z,8.88
2022-11-21T16:54:45.419Z,8.00
2022-11-21T16:57:12.351Z,7.10
2022-11-21T16:59:39.307Z,10.07
2022-11-21T17:02:06.301Z,6.60
2022-11-21T17:04:34.798Z,3.10
2022-11-21T17:07:02.327Z,2.45
2022-11-21T17:09:29.390Z,17.23
2022-11-21T17:11:59.288Z,8.15
2022-11-21T17:14:26.658Z,3.03
2022-11-21T17:16:53.941Z,1.87
2022-11-21T17:19:20.985Z,2.20
2022-11-21T17:21:47.911Z,3.03
2022-11-21T17:24:15.197Z,3.65
2022-11-21T17:26:42.114Z,3.42
2022-11-21T17:29:09.670Z,4.10
2022-11-21T17:31:36.627Z,4.50
2022-11-21T17:34:03.677Z,6.68
2022-11-21T17:36:31.192Z,4.38
2022-11-21T17:38:58.075Z,3.05
2022-11-21T17:41:25.982Z,3.30
2022-11-21T17:43:56.186Z,4.47
2022-11-21T17:46:25.609Z,7.20
2022-11-21T17:48:57.166Z,2.40
2022-11-21T17:51:30.504Z,2.92
2022-11-21T17:53:57.890Z,4.20
2022-11-21T17:56:27.080Z,11.40
2022-11-21T17:58:54.409Z,6.15
2022-11-21T18:01:22.151Z,7.80
2022-11-21T18:04:14.917Z,6.20
2022-11-21T18:06:42.332Z,5.40
2022-11-21T18:09:13.185Z,4.60
2022-11-21T18:11:40.903Z,4.40
2022-11-21T18:14:10.023Z,3.90
2022-11-21T18:16:39.324Z,4.70
2022-11-21T18:19:06.706Z,7.07
2022-11-21T18:21:35.859Z,5.68
2022-11-21T18:24:02.946Z,6.25
2022-11-21T18:26:36.192Z,6.18
2022-11-21T18:31:53.201Z,6.70
2022-11-21T18:34:20.288Z,3.80
2022-11-21T18:36:47.792Z,5.15
2022-11-21T18:39:15.751Z,5.10
2022-11-21T18:41:43.595Z,5.55
2022-11-21T18:44:12.688Z,5.40
2022-11-21T18:46:41.846Z,5.78
2022-11-21T18:49:08.863Z,6.30
2022-11-21T18:51:36.649Z,5.15
2022-11-21T18:54:08.272Z,5.78
2022-11-21T18:56:37.231Z,6.93
2022-11-21T18:59:06.451Z,10.30
2022-11-21T19:01:35.507Z,6.00
2022-11-21T19:04:02.935Z,6.60
2022-11-21T19:06:29.877Z,4.70
2022-11-21T19:08:58.065Z,10.02
2022-11-21T19:11:27.407Z,10.37
2022-11-21T19:13:55.698Z,10.85
2022-11-21T19:16:24.981Z,5.10
2022-11-21T19:21:42.193Z,8.65
2022-11-21T19:24:13.749Z,6.23
2022-11-21T19:26:41.021Z,6.07
2022-11-21T19:29:08.629Z,6.47
2022-11-21T19:31:40.726Z,8.15
2022-11-21T19:34:12.210Z,6.90
2022-11-21T19:36:39.613Z,8.80
2022-11-21T19:39:06.762Z,6.50
2022-11-21T19:41:33.866Z,7.55
2022-11-21T19:44:01.865Z,5.40
2022-11-21T19:46:31.981Z,4.88
2022-11-21T19:49:00.092Z,4.90
2022-11-21T19:51:39.309Z,4.80
2022-11-21T19:54:08.141Z,5.82
2022-11-21T19:56:35.967Z,1.60
2022-11-21T19:59:03.266Z,1.60
2022-11-21T20:01:32.517Z,2.10
2022-11-21T20:04:01.955Z,1.80
2022-11-21T20:06:32.760Z,2.30
2022-11-21T20:09:06.121Z,2.00
2022-11-21T20:11:35.236Z,1.80
2022-11-21T20:14:02.634Z,1.95
2022-11-21T20:16:57.300Z,2.10
2022-11-21T20:19:27.099Z,1.60
2022-11-21T20:21:54.581Z,1.60
2022-11-21T20:24:21.528Z,1.70
2022-11-21T20:26:48.440Z,1.25
2022-11-21T20:29:16.073Z,2.40
2022-11-21T20:31:43.328Z,2.20
2022-11-21T20:34:13.980Z,2.67
2022-11-21T20:36:41.591Z,1.45
2022-11-21T20:39:18.712Z,1.02
2022-11-21T20:41:46.609Z,1.00
2022-11-21T20:47:03.198Z,0.90
2022-11-21T20:49:30.631Z,1.60
2022-11-21T20:54:44.721Z,1.70
2022-11-21T20:57:15.124Z,1.38
2022-11-21T20:59:42.812Z,2.25
2022-11-21T21:02:12.208Z,0.85
2022-11-21T21:04:39.581Z,1.10
2022-11-21T21:07:06.568Z,0.80
2022-11-21T21:09:33.528Z,1.00
2022-11-21T21:12:00.391Z,0.80
2022-11-21T21:14:27.314Z,0.80
2022-11-21T21:16:54.428Z,1.10
2022-11-21T21:19:21.797Z,0.80
2022-11-21T21:21:48.768Z,0.85
2022-11-21T21:24:16.074Z,0.80
2022-11-21T21:26:48.026Z,0.70
2022-11-21T21:29:20.115Z,0.60
2022-11-21T21:31:51.465Z,0.80
2022-11-21T21:34:20.222Z,0.90
2022-11-21T21:36:47.294Z,0.80
2022-11-21T21:39:14.468Z,0.90
2022-11-21T21:41:44.610Z,0.70
2022-11-21T21:44:12.296Z,1.10
2022-11-21T21:46:39.131Z,2.60
2022-11-21T21:49:06.055Z,1.60
2022-11-21T21:51:32.929Z,1.38
2022-11-21T21:54:00.250Z,1.20
2022-11-21T21:56:29.007Z,1.60
2022-11-21T21:58:59.704Z,1.50
2022-11-21T22:01:31.486Z,1.20
2022-11-21T22:04:03.322Z,0.90
2022-11-21T22:06:32.632Z,1.00
2022-11-21T22:08:59.610Z,1.08
2022-11-21T22:11:32.575Z,0.75
2022-11-21T22:14:04.506Z,0.90
2022-11-21T22:16:32.188Z,0.80
2022-11-21T22:18:59.524Z,1.17
2022-11-21T22:21:34.702Z,1.00
2022-11-21T22:26:51.013Z,1.10
2022-11-21T22:29:17.914Z,0.93
2022-11-21T22:31:44.900Z,0.90
2022-11-21T22:34:14.005Z,0.80
2022-11-21T22:36:41.584Z,0.93
2022-11-21T22:39:09.131Z,1.00
2022-11-21T22:41:36.172Z,1.10
2022-11-21T22:44:03.206Z,1.10
2022-11-21T22:46:31.144Z,1.10
2022-11-21T22:48:58.690Z,1.02
2022-11-21T22:51:29.309Z,0.90
2022-11-21T22:53:56.615Z,0.85
2022-11-21T22:56:25.091Z,0.98
2022-11-21T22:58:52.640Z,1.00
2022-11-21T23:01:22.975Z,1.20
2022-11-21T23:03:50.463Z,1.17
2022-11-21T23:06:25.371Z,1.15
2022-11-21T23:08:54.191Z,1.40
2022-11-21T23:11:28.737Z,1.10
2022-11-21T23:13:56.669Z,1.10
2022-11-21T23:16:25.207Z,1.20
2022-11-21T23:18:53.676Z,1.30
2022-11-21T23:21:21.464Z,1.00
2022-11-21T23:23:48.508Z,1.00
2022-11-21T23:26:15.738Z,1.10
2022-11-21T23:28:42.778Z,1.10
2022-11-21T23:31:10.272Z,1.10
2022-11-21T23:33:37.244Z,1.10
2022-11-21T23:36:04.686Z,1.27
2022-11-21T23:38:31.774Z,1.30
2022-11-21T23:40:58.769Z,1.10
2022-11-21T23:43:25.723Z,1.10
2022-11-21T23:45:54.191Z,1.40
2022-11-21T23:48:22.179Z,1.30
2022-11-21T23:50:52.905Z,1.60
2022-11-21T23:53:20.730Z,1.30
2022-11-21T23:55:48.462Z,1.33
2022-11-21T23:58:16.122Z,1.20
